Time;durP1;ratioP1;P1;durP2;ratioP2;P2;SDS_P1;SDS_P2;PMS_P1;PMS_P2;Temp;Humidity;BMP_temperature;BMP_pressure;BME280_temperature;BME280_humidity;BME280_pressure;Samples;Min_cycle;Max_cycle;Signal;HPM_P1;HPM_P2
2023/10/09 00:01:46;;;;;;;;;;;15.80;54.40;;;11.66;100.00;96265.41;4973125;28;19980;-45
2023/10/09 00:04:13;;;;;;;;;;;15.80;54.40;;;11.64;100.00;96272.88;4972373;28;19909;-43
2023/10/09 00:06:41;;;;;;;;;;;15.80;54.50;;;11.61;100.00;96266.19;4974999;28;19968;-51
2023/10/09 00:11:57;;;;;;;;;;;15.70;54.60;;;11.52;100.00;96278.38;4972770;28;19913;-46
2023/10/09 00:14:35;;;;;;;;;;;15.70;54.70;;;11.51;100.00;96274.91;4973311;28;19917;-48
2023/10/09 00:17:22;;;;;;;;;;;15.70;54.70;;;11.54;100.00;96276.28;4956566;28;20008;-44
2023/10/09 00:19:51;;;;;;;;;;;15.70;54.80;;;11.57;100.00;96273.91;4972716;28;20331;-45
2023/10/09 00:24:51;;;;;;;;;;;15.70;55.10;;;11.61;100.00;96274.19;4973882;28;19984;-49
2023/10/09 00:27:23;;;;;;;;;;;15.70;55.10;;;11.55;100.00;96267.19;4973170;28;20335;-44
2023/10/09 00:29:54;;;;;;;;;;;15.70;55.10;;;11.62;100.00;96269.66;4971502;28;20327;-48
2023/10/09 00:32:26;;;;;;;;;;;15.70;55.20;;;11.63;100.00;96265.94;4970772;28;20283;-45
2023/10/09 00:34:52;;;;;;;;;;;15.70;55.20;;;11.60;100.00;96266.47;4971466;28;20004;-44
2023/10/09 00:37:22;;;;;;;;;;;15.70;55.20;;;11.52;100.00;96270.38;4972986;28;19949;-49
2023/10/09 00:39:58;;;;;;;;;;;15.70;55.20;;;11.48;100.00;96266.63;4975431;28;19971;-46
2023/10/09 00:42:29;;;;;;;;;;;15.70;55.30;;;11.45;100.00;96269.78;4974026;28;20349;-45
2023/10/09 00:44:56;;;;;;;;;;;15.60;55.20;;;11.38;100.00;96270.00;4973530;28;19956;-48
2023/10/09 00:47:44;;;;;;;;;;;15.60;55.20;;;11.37;100.00;96267.56;4971976;28;20408;-46
2023/10/09 00:52:50;;;;;;;;;;;15.50;55.30;;;11.25;100.00;96271.22;4971995;28;19917;-46
2023/10/09 00:55:38;;;;;;;;;;;15.50;55.30;;;11.28;100.00;96270.69;4972562;28;20400;-44
2023/10/09 00:58:12;;;;;;;;;;;15.50;55.40;;;11.21;100.00;96269.28;4971934;28;20004;-46
2023/10/09 01:05:57;;;;;;;;;;;15.40;55.60;;;11.09;100.00;96256.09;4970193;28;20344;-50
2023/10/09 01:08:43;;;;;;;;;;;15.40;55.60;;;10.99;100.00;96255.97;4972701;28;19910;-44
2023/10/09 01:11:30;;;;;;;;;;;15.30;55.60;;;10.98;100.00;96252.53;4971891;28;20004;-47
2023/10/09 01:14:11;;;;;;;;;;;15.30;55.70;;;10.91;100.00;96251.13;4973192;28;19937;-46
2023/10/09 01:16:41;;;;;;;;;;;15.20;55.60;;;10.89;100.00;96244.16;4975401;28;19963;-45
2023/10/09 01:19:12;;;;;;;;;;;15.20;55.80;;;10.92;100.00;96245.53;4972322;28;19948;-45
2023/10/09 01:21:39;;;;;;;;;;;15.10;55.80;;;10.86;100.00;96250.00;4979853;28;20028;-45
2023/10/09 01:24:09;;;;;;;;;;;15.20;56.00;;;10.86;100.00;96249.19;4970571;28;20488;-47
2023/10/09 01:26:46;;;;;;;;;;;15.10;56.00;;;10.89;100.00;96246.81;4972144;28;19914;-47
2023/10/09 01:29:16;;;;;;;;;;;15.10;56.10;;;10.88;100.00;96250.56;4966328;28;19925;-44
2023/10/09 01:32:00;;;;;;;;;;;15.10;56.10;;;10.86;100.00;96244.66;4969994;28;19918;-45
2023/10/09 01:34:49;;;;;;;;;;;15.10;56.20;;;10.90;100.00;96250.28;4971272;28;19913;-45
2023/10/09 01:37:26;;;;;;;;;;;15.10;56.20;;;10.94;100.00;96243.41;4972314;28;20398;-44
2023/10/09 01:39:57;;;;;;;;;;;15.10;56.30;;;10.92;100.00;96245.53;4972346;28;19914;-45
2023/10/09 01:42:31;;;;;;;;;;;15.10;56.30;;;10.88;100.00;96245.22;4976200;28;19917;-44
2023/10/09 01:47:39;;;;;;;;;;;15.10;56.30;;;10.78;100.00;96229.13;4975361;28;19941;-45
2023/10/09 01:50:20;;;;;;;;;;;15.10;56.40;;;10.85;100.00;96235.06;4983855;28;20000;-45
2023/10/09 01:52:46;;;;;;;;;;;15.00;56.50;;;10.85;100.00;96232.41;4984504;28;19910;-45
2023/10/09 01:55:34;;;;;;;;;;;15.00;56.50;;;10.84;100.00;96233.47;4983127;28;20284;-44
2023/10/09 01:58:16;;;;;;;;;;;15.00;56.50;;;10.81;100.00;96227.78;4975985;28;19918;-44
2023/10/09 02:00:49;;;;;;;;;;;15.00;56.50;;;10.82;100.00;96224.91;4979725;28;20000;-43
2023/10/09 02:03:15;;;;;;;;;;;15.00;56.50;;;10.85;100.00;96227.06;4975353;28;19949;-45
2023/10/09 02:05:45;;;;;;;;;;;15.00;56.50;;;10.85;100.00;96221.72;4975171;28;20387;-44
2023/10/09 02:08:11;;;;;;;;;;;15.00;56.50;;;10.83;100.00;96226.50;4975646;28;20398;-47
2023/10/09 02:10:39;;;;;;;;;;;15.00;56.60;;;10.89;100.00;96235.34;4974685;28;19909;-48
2023/10/09 02:13:06;;;;;;;;;;;15.00;56.70;;;10.97;100.00;96231.44;4981863;28;19910;-44
2023/10/09 02:21:00;;;;;;;;;;;15.00;56.70;;;10.88;100.00;96220.44;4976275;28;20009;-45
2023/10/09 02:31:46;;;;;;;;;;;15.00;56.80;;;10.82;100.00;96213.44;4964248;28;20048;-45
2023/10/09 02:34:15;;;;;;;;;;;15.00;56.70;;;10.77;100.00;96216.84;4973947;28;19964;-49
2023/10/09 02:36:42;;;;;;;;;;;15.00;56.70;;;10.69;100.00;96211.97;4975147;28;19910;-45
2023/10/09 02:39:22;;;;;;;;;;;15.00;56.70;;;10.64;100.00;96207.38;4975533;28;19996;-45
2023/10/09 02:41:51;;;;;;;;;;;14.90;56.70;;;10.70;100.00;96221.56;4975598;28;20329;-45
2023/10/09 02:44:17;;;;;;;;;;;14.90;56.80;;;10.73;100.00;96221.06;4974327;28;19924;-45
2023/10/09 02:46:44;;;;;;;;;;;14.90;56.90;;;10.79;100.00;96220.06;4982785;28;19914;-44
2023/10/09 02:49:15;;;;;;;;;;;14.90;57.00;;;10.80;100.00;96226.19;4994268;28;19989;-45
2023/10/09 02:51:47;;;;;;;;;;;14.90;57.00;;;10.82;100.00;96211.56;4991192;28;19917;-45
2023/10/09 02:54:27;;;;;;;;;;;14.90;57.00;;;10.79;100.00;96220.06;4993573;28;19916;-45
2023/10/09 02:57:05;;;;;;;;;;;14.90;57.00;;;10.71;100.00;96217.03;4994178;28;20004;-46
2023/10/09 02:59:32;;;;;;;;;;;14.90;57.10;;;10.71;100.00;96217.84;4985967;28;19910;-45
2023/10/09 03:01:59;;;;;;;;;;;14.90;57.00;;;10.63;100.00;96215.63;4993256;28;20152;-50
2023/10/09 03:04:31;;;;;;;;;;;14.90;57.00;;;10.61;100.00;96212.41;4992260;28;20430;-46
2023/10/09 03:06:58;;;;;;;;;;;14.80;57.00;;;10.53;100.00;96210.16;4994079;28;19944;-49
2023/10/09 03:09:27;;;;;;;;;;;14.80;57.00;;;10.52;100.00;96206.69;4994211;28;19909;-44
2023/10/09 03:12:02;;;;;;;;;;;14.80;57.00;;;10.47;100.00;96205.84;4991156;28;19933;-46
2023/10/09 03:14:35;;;;;;;;;;;14.80;57.10;;;10.46;100.00;96210.34;4993582;28;19936;-47
2023/10/09 03:17:01;;;;;;;;;;;14.70;57.10;;;10.48;100.00;96210.13;4991883;28;19921;-45
2023/10/09 03:19:31;;;;;;;;;;;14.70;57.20;;;10.45;100.00;96211.41;4994004;28;20383;-50
2023/10/09 03:21:57;;;;;;;;;;;14.70;57.20;;;10.40;100.00;96214.00;4991175;28;19960;-44
2023/10/09 03:26:57;;;;;;;;;;;14.60;57.20;;;10.26;100.00;96210.09;5008756;28;19921;-47
2023/10/09 03:29:25;;;;;;;;;;;14.60;57.20;;;10.20;100.00;96206.53;5011768;28;20023;-48
2023/10/09 03:31:51;;;;;;;;;;;14.60;57.20;;;10.17;100.00;96209.69;5013095;28;19909;-48
2023/10/09 03:34:18;;;;;;;;;;;14.50;57.30;;;10.19;100.00;96208.41;5013230;28;20375;-46
2023/10/09 03:36:47;;;;;;;;;;;14.50;57.40;;;10.14;100.00;96211.00;5012485;28;20011;-46
2023/10/09 03:41:58;;;;;;;;;;;14.40;57.40;;;10.11;100.00;96206.16;5012907;28;19977;-50
2023/10/09 03:44:28;;;;;;;;;;;14.40;57.50;;;10.05;100.00;96207.13;5012811;28;20008;-48
2023/10/09 03:46:55;;;;;;;;;;;14.40;57.60;;;10.06;100.00;96214.09;5009218;28;19913;-51
2023/10/09 03:49:25;;;;;;;;;;;14.30;57.60;;;10.01;100.00;96198.03;5012831;28;20283;-50
2023/10/09 03:51:52;;;;;;;;;;;14.30;57.70;;;9.99;100.00;96204.66;5011798;28;19948;-48
2023/10/09 03:54:20;;;;;;;;;;;14.30;57.70;;;9.98;100.00;96203.84;5012632;28;20458;-48
2023/10/09 03:56:50;;;;;;;;;;;14.30;57.70;;;9.94;100.00;96194.75;5012472;28;20015;-49
2023/10/09 03:59:21;;;;;;;;;;;14.30;57.80;;;9.92;100.00;96202.97;5011307;28;19909;-48
2023/10/09 04:01:52;;;;;;;;;;;14.30;57.80;;;9.90;100.00;96196.28;5012601;28;20049;-47
2023/10/09 04:04:23;;;;;;;;;;;14.20;57.80;;;9.87;100.00;96210.91;5011486;28;19917;-47
2023/10/09 04:06:51;;;;;;;;;;;14.20;57.90;;;9.89;100.00;96195.47;5012216;28;19913;-46
2023/10/09 04:14:33;;;;;;;;;;;14.20;58.10;;;9.92;100.00;96202.97;5012086;28;20011;-48
2023/10/09 04:17:32;;;;;;;;;;;14.20;58.20;;;9.94;100.00;96200.88;5010001;28;20007;-50
2023/10/09 04:25:25;;;;;;;;;;;14.10;58.80;;;9.96;100.00;96200.63;5011664;28;19928;-46
2023/10/09 04:28:09;;;;;;;;;;;14.10;58.30;;;9.96;100.00;96204.13;5011244;28;20487;-47
2023/10/09 04:30:55;;;;;;;;;;;14.20;58.40;;;10.06;100.00;96203.44;5012039;28;19915;-48
2023/10/09 04:36:26;;;;;;;;;;;14.20;58.50;;;10.08;100.00;96200.53;5009201;28;19909;-46
2023/10/09 04:39:15;;;;;;;;;;;14.20;59.10;;;10.14;100.00;96200.34;5010638;28;19920;-48
2023/10/09 04:44:29;;;;;;;;;;;14.30;58.60;;;10.19;100.00;96197.75;5011595;28;20008;-47
2023/10/09 04:50:02;;;;;;;;;;;14.40;58.70;;;10.25;100.00;96200.47;5011896;28;19916;-47
2023/10/09 05:02:56;;;;;;;;;;;14.50;58.80;;;10.41;100.00;96210.31;5010769;28;19916;-48
2023/10/09 05:08:28;;;;;;;;;;;14.50;58.70;;;10.44;100.00;96217.00;5011145;28;19909;-50
2023/10/09 05:16:18;;;;;;;;;;;14.60;58.60;;;10.36;100.00;96213.69;5009402;28;19909;-46
2023/10/09 05:18:56;;;;;;;;;;;14.60;58.60;;;10.36;100.00;96202.25;5011369;28;20003;-46
2023/10/09 05:21:44;;;;;;;;;;;14.60;58.60;;;10.40;100.00;96208.69;5011474;28;19912;-45
2023/10/09 05:37:24;;;;;;;;;;;14.60;58.60;;;10.32;100.00;96209.13;5002414;28;20441;-47
2023/10/09 05:44:55;;;;;;;;;;;14.60;58.50;;;10.25;100.00;96214.59;5011030;28;19945;-47
2023/10/09 05:47:54;;;;;;;;;;;14.60;58.50;;;10.18;100.00;96217.47;5008442;28;19913;-48
2023/10/09 06:03:54;;;;;;;;;;;14.60;59.30;;;10.24;100.00;96218.31;5009280;28;19909;-46
2023/10/09 06:06:33;;;;;;;;;;;14.60;58.70;;;10.36;100.00;96220.88;5009980;28;19917;-46
2023/10/09 06:11:49;;;;;;;;;;;14.70;58.80;;;10.49;100.00;96231.16;5008240;28;20368;-46
2023/10/09 06:14:25;;;;;;;;;;;14.80;58.80;;;10.51;100.00;96231.72;5010100;28;19909;-46
2023/10/09 06:17:15;;;;;;;;;;;14.90;58.80;;;10.64;100.00;96238.53;5008301;28;19909;-45
2023/10/09 06:19:43;;;;;;;;;;;15.00;58.80;;;10.78;100.00;96241.63;5010009;28;20066;-47
2023/10/09 06:24:57;;;;;;;;;;;15.20;58.80;;;11.13;100.00;96241.22;5008984;28;19934;-50
2023/10/09 06:30:13;;;;;;;;;;;15.50;58.90;;;11.43;100.00;96245.22;5012780;28;19916;-45
2023/10/09 06:32:49;;;;;;;;;;;15.70;58.80;;;11.56;100.00;96253.63;5011155;28;19913;-44
2023/10/09 06:46:37;;;;;;;;;;;16.50;58.20;;;12.05;100.00;96244.66;5012664;28;19917;-48
2023/10/09 06:48:55;;;;;;;;;;;16.60;58.00;;;12.26;100.00;96240.25;5013815;28;19909;-45
2023/10/09 07:06:59;;;;;;;;;;;17.70;57.20;;;13.24;96.53;96268.16;5013161;28;19913;-46
2023/10/09 07:09:42;;;;;;;;;;;17.90;57.10;;;13.36;96.30;96266.06;5013624;28;20328;-48
2023/10/09 07:12:14;;;;;;;;;;;18.00;56.90;;;13.51;96.11;96276.78;5014440;28;19919;-46
2023/10/09 07:24:58;;;;;;;;;;;19.00;56.10;;;14.41;90.32;96280.75;5014109;28;19909;-44
2023/10/09 07:38:14;;;;;;;;;;;21.00;54.70;;;16.45;76.61;96284.09;5011669;28;19944;-49
2023/10/09 07:41:33;;;;;;;;;;;21.50;54.40;;;16.94;75.19;96281.19;5012765;28;20330;-47
2023/10/09 07:43:45;;;;;;;;;;;22.00;54.10;;;17.44;71.20;96280.78;5013553;28;19909;-47
2023/10/09 07:46:32;;;;;;;;;;;22.60;53.50;;;17.87;69.24;96286.13;5012399;28;20002;-46
2023/10/09 07:49:08;;;;;;;;;;;23.10;53.00;;;18.36;67.35;96280.16;5013527;28;19913;-47
2023/10/09 07:51:43;;;;;;;;;;;23.60;52.50;;;18.83;64.94;96288.22;5013939;28;19909;-47
2023/10/09 07:54:14;;;;;;;;;;;24.10;52.00;;;19.25;63.46;96294.41;5013752;28;19909;-48
2023/10/09 07:56:44;;;;;;;;;;;24.50;51.40;;;19.60;61.66;96293.63;5013652;28;19911;-48
2023/10/09 07:59:12;;;;;;;;;;;24.90;51.00;;;19.98;60.14;96296.00;5012463;28;19970;-47
2023/10/09 08:02:02;;;;;;;;;;;25.30;50.40;;;20.38;58.68;96296.13;5012195;28;19909;-52
2023/10/09 08:04:48;;;;;;;;;;;25.70;50.00;;;20.83;57.06;96306.84;5012458;28;19909;-49
2023/10/09 08:07:34;;;;;;;;;;;26.10;49.50;;;21.13;56.15;96304.41;5013162;28;19913;-50
2023/10/09 08:17:53;;;;;;;;;;;27.50;47.70;;;22.06;51.05;96322.22;5012205;28;20350;-49
2023/10/09 08:20:25;;;;;;;;;;;27.90;47.30;;;22.06;50.41;96311.38;5011997;28;20427;-51
2023/10/09 08:22:55;;;;;;;;;;;28.30;46.80;;;22.20;50.76;96317.47;5012320;28;20334;-50
2023/10/09 08:25:29;;;;;;;;;;;28.60;46.20;;;22.31;50.69;96321.47;5012673;28;19970;-49
2023/10/09 08:30:50;;;;;;;;;;;29.20;45.40;;;22.83;50.02;96317.78;5010398;28;19915;-53
2023/10/09 08:36:01;;;;;;;;;;;29.70;44.50;;;23.18;49.57;96320.38;5012789;28;19916;-47
2023/10/09 08:38:33;;;;;;;;;;;29.70;44.20;;;23.35;48.70;96319.47;5013635;28;20027;-49
2023/10/09 08:41:09;;;;;;;;;;;29.90;44.10;;;23.41;49.64;96320.88;5027309;28;19976;-47
2023/10/09 08:43:41;;;;;;;;;;;29.90;43.80;;;23.21;49.53;96319.72;5013065;28;19913;-50
2023/10/09 08:46:07;;;;;;;;;;;29.90;43.50;;;23.23;49.65;96317.50;5010697;28;19924;-48
2023/10/09 08:48:37;;;;;;;;;;;30.00;43.40;;;23.41;49.17;96319.00;5009873;28;19912;-51
2023/10/09 08:51:06;;;;;;;;;;;30.10;43.20;;;23.71;48.82;96325.22;5018617;28;19920;-53
2023/10/09 08:53:33;;;;;;;;;;;30.20;43.00;;;23.89;47.92;96325.09;5009533;28;19913;-52
2023/10/09 08:55:59;;;;;;;;;;;30.30;42.90;;;23.81;48.02;96324.00;5012202;28;19913;-51
2023/10/09 08:58:32;;;;;;;;;;;30.30;42.60;;;23.53;48.93;96329.13;5011135;28;19920;-50
2023/10/09 09:01:00;;;;;;;;;;;30.40;42.40;;;23.53;49.02;96332.66;5012007;28;19909;-51
2023/10/09 09:03:26;;;;;;;;;;;30.50;42.10;;;23.75;47.88;96328.06;5011790;28;20382;-53
2023/10/09 09:06:01;;;;;;;;;;;30.60;41.90;;;23.99;48.66;96330.91;5010734;28;19959;-49
2023/10/09 09:08:30;;;;;;;;;;;30.60;41.80;;;24.08;48.41;96330.06;5010673;28;20383;-51
2023/10/09 09:11:30;;;;;;;;;;;30.80;41.50;;;24.33;47.43;96330.94;5011264;28;19916;-50
2023/10/09 09:14:05;;;;;;;;;;;31.00;41.30;;;24.34;46.99;96330.59;5011740;28;20033;-51
2023/10/09 09:16:36;;;;;;;;;;;31.20;40.60;;;24.75;46.14;96325.41;5026657;28;20347;-49
2023/10/09 09:21:44;;;;;;;;;;;31.60;40.30;;;25.34;44.28;96322.31;5012316;28;19917;-51
2023/10/09 09:26:59;;;;;;;;;;;32.10;39.60;;;25.59;43.00;96326.59;5026698;23;19925;-54
2023/10/09 09:29:39;;;;;;;;;;;32.20;39.40;;;25.82;42.98;96324.22;5011671;28;19913;-51
2023/10/09 09:35:05;;;;;;;;;;;32.60;38.50;;;25.80;41.85;96320.97;5017234;28;20350;-52
2023/10/09 09:40:27;;;;;;;;;;;33.00;38.20;;;26.26;40.19;96321.56;5017764;28;19909;-52
2023/10/09 09:43:04;;;;;;;;;;;33.20;37.70;;;26.16;40.58;96313.06;5011890;28;19941;-51
2023/10/09 09:45:35;;;;;;;;;;;33.20;37.30;;;25.90;40.67;96313.50;5024402;28;20383;-52
2023/10/09 09:48:06;;;;;;;;;;;33.10;37.10;;;26.06;40.75;96308.88;5013710;28;19909;-57
2023/10/09 09:50:43;;;;;;;;;;;33.10;37.10;;;26.28;40.77;96305.59;5022228;28;19986;-55
2023/10/09 09:53:18;;;;;;;;;;;33.20;37.00;;;26.33;39.97;96310.03;5003074;28;19917;-57
2023/10/09 09:55:57;;;;;;;;;;;33.30;36.80;;;26.50;39.88;96307.00;5010145;28;19909;-56
2023/10/09 09:58:26;;;;;;;;;;;33.40;36.50;;;25.99;40.65;96305.97;5009243;28;19917;-57
2023/10/09 10:00:59;;;;;;;;;;;33.60;36.30;;;26.25;41.06;96305.50;5011847;28;20058;-56
2023/10/09 10:03:39;;;;;;;;;;;33.50;35.70;;;25.98;41.44;96296.16;5012782;28;19908;-57
2023/10/09 10:06:12;;;;;;;;;;;33.50;35.60;;;25.86;42.62;96298.97;5044845;28;19920;-57
2023/10/09 10:08:39;;;;;;;;;;;33.50;35.20;;;26.06;42.44;96290.56;5012972;28;19913;-49
2023/10/09 10:11:06;;;;;;;;;;;33.40;35.10;;;26.08;41.98;96282.84;5012498;28;20332;-50
2023/10/09 10:13:41;;;;;;;;;;;33.30;34.90;;;26.48;42.26;96287.44;5013425;28;19920;-50
2023/10/09 10:16:13;;;;;;;;;;;33.20;35.10;;;26.40;41.13;96284.84;5025916;28;19917;-49
2023/10/09 10:21:41;;;;;;;;;;;33.10;34.90;;;26.59;41.19;96287.72;5039536;28;19978;-50
2023/10/09 10:24:51;;;;;;;;;;;33.10;35.10;;;26.20;41.46;96282.00;5046047;28;20320;-49
2023/10/09 10:27:30;;;;;;;;;;;33.10;34.90;;;26.30;41.68;96284.22;4997441;28;20038;-50
2023/10/09 10:30:11;;;;;;;;;;;33.10;34.80;;;26.45;41.20;96287.31;5013271;28;19913;-50
2023/10/09 10:32:52;;;;;;;;;;;33.10;34.80;;;26.63;41.79;96287.81;5014223;28;20007;-48
2023/10/09 10:39:03;;;;;;;;;;;33.40;34.90;;;26.99;41.87;96290.28;5014955;28;20366;-56
2023/10/09 10:41:35;;;;;;;;;;;33.40;34.80;;;26.84;41.25;96284.81;4960318;28;19913;-57
2023/10/09 10:44:33;;;;;;;;;;;33.50;34.60;;;26.80;40.87;96284.75;4976225;28;19910;-54
2023/10/09 10:46:54;;;;;;;;;;;33.50;34.50;;;26.67;40.83;96278.56;5004453;28;19924;-55
2023/10/09 10:49:26;;;;;;;;;;;33.50;34.30;;;26.71;41.00;96289.59;5012552;28;19951;-51
2023/10/09 10:57:03;;;;;;;;;;;33.70;34.30;;;26.83;41.26;96267.66;5013030;28;20548;-52
2023/10/09 10:59:41;;;;;;;;;;;33.80;34.20;;;27.09;40.91;96269.81;5012375;28;19952;-51
2023/10/09 11:04:44;;;;;;;;;;;34.10;34.20;;;27.17;39.96;96265.31;5012703;28;20399;-54
2023/10/09 11:07:24;;;;;;;;;;;34.30;33.90;;;27.16;40.86;96263.75;5013135;28;19968;-49
2023/10/09 11:12:55;;;;;;;;;;;34.30;33.40;;;27.30;41.20;96252.38;5012824;28;19909;-54
2023/10/09 11:15:44;;;;;;;;;;;34.40;33.30;;;27.19;39.93;96250.16;5012895;28;19909;-49
2023/10/09 11:18:24;;;;;;;;;;;34.60;33.10;;;27.28;40.07;96249.19;5005896;28;20015;-54
2023/10/09 11:21:22;;;;;;;;;;;34.60;33.00;;;27.10;40.81;96244.06;5009310;28;19928;-53
2023/10/09 11:23:57;;;;;;;;;;;34.60;32.30;;;27.21;40.32;96249.81;5003109;28;19913;-51
2023/10/09 11:26:27;;;;;;;;;;;34.60;32.10;;;27.48;38.95;96250.00;5012124;28;19978;-55
2023/10/09 11:31:57;;;;;;;;;;;34.80;32.30;;;27.53;38.96;96249.72;5012704;28;19916;-56
2023/10/09 11:34:29;;;;;;;;;;;34.80;31.80;;;27.49;39.06;96252.41;5011699;28;20370;-50
2023/10/09 11:37:00;;;;;;;;;;;34.70;32.00;;;27.63;38.96;96257.38;5012064;28;19916;-51
2023/10/09 11:39:34;;;;;;;;;;;34.60;32.00;;;27.71;38.42;96261.84;5012313;28;20379;-51
2023/10/09 11:42:14;;;;;;;;;;;34.50;32.00;;;27.79;38.01;96260.06;5011000;28;20164;-52
2023/10/09 11:44:54;;;;;;;;;;;34.40;32.10;;;27.63;38.76;96257.38;5011578;28;19920;-56
2023/10/09 11:52:35;;;;;;;;;;;34.50;32.30;;;27.74;38.88;96249.41;5011310;28;20394;-53
2023/10/09 11:55:06;;;;;;;;;;;34.60;32.20;;;27.91;39.21;96246.25;5010820;28;19941;-53
2023/10/09 11:57:33;;;;;;;;;;;34.60;32.00;;;27.90;38.42;96236.47;5012052;28;19913;-52
2023/10/09 12:00:27;;;;;;;;;;;34.60;31.90;;;27.59;38.93;96237.34;5010755;28;20367;-54
2023/10/09 12:02:53;;;;;;;;;;;34.60;31.90;;;27.31;38.55;96232.06;5011455;28;19913;-50
2023/10/09 12:05:19;;;;;;;;;;;34.50;31.90;;;26.99;39.49;96221.94;5009473;28;20387;-53
2023/10/09 12:07:46;;;;;;;;;;;34.40;31.90;;;26.89;39.46;96208.84;5011626;28;20449;-50
2023/10/09 12:10:13;;;;;;;;;;;34.30;31.60;;;27.03;39.55;96216.56;5010957;28;20417;-50
2023/10/09 12:12:40;;;;;;;;;;;34.20;31.70;;;27.26;39.68;96219.44;5011003;28;20364;-49
2023/10/09 12:15:07;;;;;;;;;;;34.10;31.80;;;27.30;39.24;96212.13;5010879;28;20668;-50
2023/10/09 12:17:33;;;;;;;;;;;34.10;31.90;;;27.08;39.34;96212.78;5010915;28;19979;-51
2023/10/09 12:19:59;;;;;;;;;;;34.00;31.80;;;27.17;40.29;96216.94;5024027;28;20370;-53
2023/10/09 12:22:27;;;;;;;;;;;33.80;32.40;;;27.03;39.83;96210.31;5018884;28;19959;-48
2023/10/09 12:24:53;;;;;;;;;;;33.70;31.80;;;27.16;40.00;96209.06;5010453;28;19913;-50
2023/10/09 12:27:21;;;;;;;;;;;33.50;31.90;;;27.22;39.61;96213.13;5011040;28;20007;-48
2023/10/09 12:29:47;;;;;;;;;;;33.40;32.10;;;27.18;39.94;96206.78;5010138;28;19917;-50
2023/10/09 12:32:13;;;;;;;;;;;33.20;32.20;;;27.14;40.98;96203.97;5008946;28;19909;-56
2023/10/09 12:34:39;;;;;;;;;;;33.00;32.40;;;27.02;41.32;96198.59;5005708;28;19913;-57
2023/10/09 12:37:06;;;;;;;;;;;32.80;32.50;;;26.87;41.04;96188.47;5008586;28;19909;-54
2023/10/09 12:39:40;;;;;;;;;;;32.60;32.70;;;26.64;41.58;96185.59;5009444;28;19967;-54
2023/10/09 12:42:06;;;;;;;;;;;32.40;32.80;;;26.42;42.71;96195.97;5008405;28;19909;-53
2023/10/09 12:44:39;;;;;;;;;;;32.20;33.00;;;26.38;42.73;96186.09;5009233;28;19920;-49
2023/10/09 12:47:11;;;;;;;;;;;32.10;33.10;;;26.28;42.94;96190.91;5007190;28;20006;-50
2023/10/09 12:49:40;;;;;;;;;;;31.90;33.20;;;26.26;42.84;96178.75;5011453;28;20015;-51
2023/10/09 12:52:16;;;;;;;;;;;31.80;33.30;;;26.27;43.66;96181.16;5008610;28;20014;-48
2023/10/09 12:54:48;;;;;;;;;;;31.70;33.40;;;26.27;43.21;96178.41;5010384;28;20445;-54
2023/10/09 12:57:14;;;;;;;;;;;31.70;33.50;;;26.39;42.98;96182.22;5009702;28;19909;-49
2023/10/09 12:59:48;;;;;;;;;;;31.70;33.60;;;26.37;42.58;96182.56;5002389;28;19916;-50
2023/10/09 13:02:29;;;;;;;;;;;31.70;33.70;;;26.26;42.67;96178.75;5011369;28;19931;-52
2023/10/09 13:04:57;;;;;;;;;;;31.60;33.70;;;26.22;42.93;96175.16;5006917;28;20279;-55
2023/10/09 13:07:23;;;;;;;;;;;31.50;33.80;;;26.18;44.02;96175.06;5006733;28;20371;-52
2023/10/09 13:12:38;;;;;;;;;;;31.40;34.00;;;26.07;44.25;96174.81;5009777;28;20469;-50
2023/10/09 13:15:09;;;;;;;;;;;31.30;34.10;;;25.92;44.15;96164.66;5010085;28;19924;-49
2023/10/09 13:17:36;;;;;;;;;;;31.20;34.20;;;25.76;44.56;96164.59;5008870;28;19971;-55
2023/10/09 13:20:12;;;;;;;;;;;31.10;34.30;;;25.66;45.08;96161.53;5011637;28;19958;-49
2023/10/09 13:22:40;;;;;;;;;;;30.90;34.30;;;25.65;45.41;96154.50;5006801;28;19913;-51
2023/10/09 13:25:16;;;;;;;;;;;30.70;34.40;;;25.58;44.98;96155.13;5008595;28;19944;-54
2023/10/09 13:27:51;;;;;;;;;;;30.60;34.60;;;25.51;45.18;96152.97;5008825;28;20377;-54
2023/10/09 13:30:27;;;;;;;;;;;30.60;34.70;;;25.51;45.43;96149.44;5008413;28;19917;-52
2023/10/09 13:32:53;;;;;;;;;;;30.50;34.80;;;25.44;45.74;96149.25;5008252;28;19924;-53
2023/10/09 13:35:19;;;;;;;;;;;30.40;34.80;;;25.43;46.21;96148.47;5008948;28;19909;-49
2023/10/09 13:37:54;;;;;;;;;;;30.40;35.60;;;25.49;46.93;96146.28;5013973;28;20008;-54
2023/10/09 13:40:28;;;;;;;;;;;30.30;35.00;;;25.45;45.79;96145.41;5011561;28;20286;-56
2023/10/09 13:42:58;;;;;;;;;;;30.30;35.20;;;25.44;45.80;96141.84;5013481;28;19913;-55
2023/10/09 13:45:28;;;;;;;;;;;30.20;35.20;;;25.42;47.64;96140.63;5013440;28;19920;-55
2023/10/09 13:47:56;;;;;;;;;;;30.20;35.30;;;25.42;46.81;96143.38;5012508;28;20008;-54
2023/10/09 13:50:32;;;;;;;;;;;30.10;35.30;;;25.43;47.01;96136.75;5013987;28;19913;-55
2023/10/09 13:52:58;;;;;;;;;;;30.10;35.60;;;25.39;47.30;96132.00;5012189;28;20362;-52
2023/10/09 13:55:31;;;;;;;;;;;30.00;35.70;;;25.34;47.53;96134.19;5013409;28;19924;-52
2023/10/09 13:57:58;;;;;;;;;;;29.90;35.80;;;25.34;49.06;96120.53;5012333;28;19917;-54
2023/10/09 14:00:33;;;;;;;;;;;29.80;35.90;;;25.20;49.13;96126.41;5014088;28;19913;-51
2023/10/09 14:03:13;;;;;;;;;;;29.70;36.00;;;25.03;50.04;96123.91;5014808;28;19954;-53
2023/10/09 14:05:51;;;;;;;;;;;29.70;36.20;;;24.90;52.09;96123.13;5014373;28;19909;-51
2023/10/09 14:08:22;;;;;;;;;;;29.60;36.30;;;24.79;51.28;96120.09;5015587;28;20396;-50
2023/10/09 14:10:49;;;;;;;;;;;29.50;36.40;;;24.67;51.41;96120.13;5014639;28;19909;-48
2023/10/09 14:13:16;;;;;;;;;;;29.50;36.50;;;24.70;51.09;96116.72;5008648;28;19916;-48
2023/10/09 14:15:43;;;;;;;;;;;29.50;37.30;;;24.74;50.96;96109.44;5015319;28;19913;-52
2023/10/09 14:18:11;;;;;;;;;;;29.50;36.70;;;24.75;52.18;96110.22;5011729;28;19909;-51
2023/10/09 14:20:41;;;;;;;;;;;29.50;36.80;;;24.79;54.84;96111.13;5033658;28;19909;-50
2023/10/09 14:23:08;;;;;;;;;;;29.60;36.80;;;24.73;53.90;96110.56;5013229;28;20279;-53
2023/10/09 14:25:37;;;;;;;;;;;29.60;36.80;;;24.55;56.25;96103.78;5013812;28;19947;-53
2023/10/09 14:28:07;;;;;;;;;;;29.70;36.90;;;24.53;56.20;96106.84;5011400;28;19924;-50
2023/10/09 14:30:44;;;;;;;;;;;29.70;36.90;;;24.46;55.87;96104.69;5014416;28;19913;-49
2023/10/09 14:33:14;;;;;;;;;;;29.80;37.10;;;24.52;56.24;96097.09;5014745;28;20494;-54
2023/10/09 14:35:45;;;;;;;;;;;29.80;37.10;;;24.56;57.00;96097.97;5013478;28;19999;-51
2023/10/09 14:38:12;;;;;;;;;;;29.90;37.20;;;24.59;57.49;96089.13;5012620;28;19909;-54
2023/10/09 14:40:43;;;;;;;;;;;29.90;37.40;;;24.61;58.12;96089.59;5013490;28;19976;-51
2023/10/09 14:43:18;;;;;;;;;;;29.90;37.50;;;24.57;59.00;96094.16;5014149;28;19909;-54
2023/10/09 14:45:54;;;;;;;;;;;29.90;37.50;;;24.63;57.21;96087.34;5012534;28;19910;-55
2023/10/09 14:48:26;;;;;;;;;;;29.90;37.70;;;24.66;57.17;96083.09;5011329;28;19915;-54
2023/10/09 14:51:04;;;;;;;;;;;30.00;37.80;;;24.72;57.41;96080.94;5015545;28;19940;-52
2023/10/09 14:53:30;;;;;;;;;;;30.00;37.80;;;24.76;57.54;96079.13;5012864;28;19999;-54
2023/10/09 14:55:57;;;;;;;;;;;30.10;37.80;;;24.78;57.33;96074.91;5012901;28;20314;-55
2023/10/09 14:58:25;;;;;;;;;;;30.20;37.90;;;24.86;57.61;96078.66;5011486;28;20363;-54
2023/10/09 15:00:55;;;;;;;;;;;30.30;37.90;;;24.88;57.34;96079.09;5012611;28;19909;-55
2023/10/09 15:03:22;;;;;;;;;;;30.40;37.90;;;24.95;57.05;96078.53;5013222;28;19912;-54
2023/10/09 15:05:49;;;;;;;;;;;30.50;37.90;;;25.06;57.77;96083.13;5012469;28;19982;-55
2023/10/09 15:08:15;;;;;;;;;;;30.70;37.80;;;25.12;57.71;96078.22;5013322;28;19954;-55
2023/10/09 15:10:56;;;;;;;;;;;30.80;37.80;;;25.19;55.50;96085.84;5012748;28;20271;-55
2023/10/09 15:13:27;;;;;;;;;;;31.00;37.70;;;25.28;56.44;96081.81;5013810;28;19917;-55